createdAt,value
2023-03-06T00:00:55.666Z,100.00
2023-03-06T00:03:24.092Z,100.00
2023-03-06T00:05:51.953Z,100.00
2023-03-06T00:08:19.644Z,100.00
2023-03-06T00:10:47.301Z,100.00
2023-03-06T00:13:18.885Z,100.00
2023-03-06T00:15:48.081Z,100.00
2023-03-06T00:18:16.139Z,100.00
2023-03-06T00:20:44.280Z,100.00
2023-03-06T00:23:13.901Z,100.00
2023-03-06T00:25:45.318Z,100.00
2023-03-06T00:28:14.892Z,100.00
2023-03-06T00:30:43.321Z,100.00
2023-03-06T00:33:10.854Z,100.00
2023-03-06T00:35:39.580Z,100.00
2023-03-06T00:38:07.696Z,100.00
2023-03-06T00:40:35.218Z,100.00
2023-03-06T00:43:02.774Z,100.00
2023-03-06T00:45:30.511Z,100.00
2023-03-06T00:47:58.400Z,100.00
2023-03-06T00:50:26.267Z,100.00
2023-03-06T00:52:54.235Z,100.00
2023-03-06T00:55:22.175Z,100.00
2023-03-06T00:57:49.863Z,100.00
2023-03-06T01:00:18.141Z,100.00
2023-03-06T01:02:45.827Z,100.00
2023-03-06T01:05:14.000Z,100.00
2023-03-06T01:07:41.712Z,100.00
2023-03-06T01:10:10.139Z,100.00
2023-03-06T01:12:38.094Z,100.00
2023-03-06T01:15:07.401Z,100.00
2023-03-06T01:17:35.918Z,100.00
2023-03-06T01:20:04.389Z,100.00
2023-03-06T01:22:32.071Z,100.00
2023-03-06T01:25:00.367Z,100.00
2023-03-06T01:27:28.076Z,100.00
2023-03-06T01:29:55.574Z,100.00
2023-03-06T01:32:23.240Z,100.00
2023-03-06T01:34:50.815Z,100.00
2023-03-06T01:37:18.294Z,100.00
2023-03-06T01:39:45.733Z,100.00
2023-03-06T01:42:13.252Z,100.00
2023-03-06T01:44:59.757Z,100.00
2023-03-06T01:47:27.938Z,100.00
2023-03-06T01:49:58.943Z,100.00
2023-03-06T01:52:30.504Z,100.00
2023-03-06T01:55:05.390Z,100.00
2023-03-06T01:57:35.783Z,100.00
2023-03-06T02:00:13.132Z,100.00
2023-03-06T02:02:48.071Z,100.00
2023-03-06T02:05:16.037Z,100.00
2023-03-06T02:07:44.534Z,100.00
2023-03-06T02:10:15.425Z,100.00
2023-03-06T02:12:46.385Z,100.00
2023-03-06T02:15:16.882Z,100.00
2023-03-06T02:17:46.003Z,100.00
2023-03-06T02:20:19.813Z,100.00
2023-03-06T02:23:29.360Z,100.00
2023-03-06T02:25:57.173Z,100.00
2023-03-06T02:28:25.519Z,100.00
2023-03-06T02:30:54.901Z,100.00
2023-03-06T02:33:26.571Z,100.00
2023-03-06T02:36:05.874Z,100.00
2023-03-06T02:38:39.859Z,100.00
2023-03-06T02:41:08.429Z,100.00
2023-03-06T02:43:38.878Z,100.00
2023-03-06T02:46:07.167Z,100.00
2023-03-06T02:48:34.956Z,100.00
2023-03-06T02:51:02.826Z,100.00
2023-03-06T02:53:30.344Z,100.00
2023-03-06T02:56:00.422Z,100.00
2023-03-06T02:58:28.133Z,100.00
2023-03-06T03:00:55.647Z,100.00
2023-03-06T03:03:23.394Z,100.00
2023-03-06T03:05:53.475Z,100.00
2023-03-06T03:08:25.043Z,100.00
2023-03-06T03:10:57.464Z,100.00
2023-03-06T03:13:27.693Z,100.00
2023-03-06T03:16:22.072Z,100.00
2023-03-06T03:18:51.111Z,100.00
2023-03-06T03:21:21.127Z,100.00
2023-03-06T03:23:49.916Z,100.00
2023-03-06T03:26:20.639Z,100.00
2023-03-06T03:28:55.043Z,100.00
2023-03-06T03:31:23.179Z,100.00
2023-03-06T03:33:51.152Z,100.00
2023-03-06T03:36:20.624Z,100.00
2023-03-06T03:38:49.311Z,100.00
2023-03-06T03:41:16.819Z,100.00
2023-03-06T03:43:44.627Z,100.00
2023-03-06T03:46:12.483Z,100.00
2023-03-06T03:48:40.338Z,100.00
2023-03-06T03:51:10.714Z,100.00
2023-03-06T03:53:41.460Z,100.00
2023-03-06T03:56:11.604Z,100.00
2023-03-06T03:58:46.781Z,100.00
2023-03-06T04:01:15.367Z,100.00
2023-03-06T04:03:43.377Z,100.00
2023-03-06T04:06:12.179Z,100.00
2023-03-06T04:08:40.215Z,100.00
2023-03-06T04:11:07.877Z,100.00
2023-03-06T04:13:35.635Z,100.00
2023-03-06T04:16:04.345Z,100.00
2023-03-06T04:18:33.514Z,100.00
2023-03-06T04:21:05.380Z,100.00
2023-03-06T04:23:33.495Z,100.00
2023-03-06T04:26:01.381Z,100.00
2023-03-06T04:28:29.362Z,100.00
2023-03-06T04:30:58.013Z,100.00
2023-03-06T04:33:25.870Z,100.00
2023-03-06T04:35:54.828Z,100.00
2023-03-06T04:38:26.826Z,100.00
2023-03-06T04:40:54.428Z,100.00
2023-03-06T04:43:22.188Z,100.00
2023-03-06T04:45:50.030Z,100.00
2023-03-06T04:48:18.662Z,100.00
2023-03-06T04:50:46.610Z,100.00
2023-03-06T04:53:15.310Z,100.00
2023-03-06T04:55:42.896Z,100.00
2023-03-06T04:58:12.054Z,100.00
2023-03-06T05:00:39.733Z,100.00
2023-03-06T05:03:08.865Z,100.00
2023-03-06T05:05:36.389Z,100.00
2023-03-06T05:08:04.037Z,100.00
2023-03-06T05:10:31.564Z,100.00
2023-03-06T05:12:59.169Z,100.00
2023-03-06T05:15:26.800Z,100.00
2023-03-06T05:17:54.330Z,100.00
2023-03-06T05:20:21.923Z,100.00
2023-03-06T05:22:49.506Z,100.00
2023-03-06T05:25:17.166Z,100.00
2023-03-06T05:27:44.752Z,100.00
2023-03-06T05:30:13.778Z,100.00
2023-03-06T05:32:41.573Z,100.00
2023-03-06T05:35:19.702Z,100.00
2023-03-06T05:37:47.715Z,100.00
2023-03-06T05:40:16.623Z,100.00
2023-03-06T05:42:44.566Z,100.00
2023-03-06T05:45:12.480Z,100.00
2023-03-06T05:47:39.996Z,100.00
2023-03-06T05:50:08.315Z,100.00
2023-03-06T05:52:36.497Z,100.00
2023-03-06T05:55:04.274Z,100.00
2023-03-06T05:57:32.113Z,100.00
2023-03-06T06:00:00.472Z,100.00
2023-03-06T06:02:28.026Z,100.00
2023-03-06T06:04:55.560Z,100.00
2023-03-06T06:07:22.988Z,100.00
2023-03-06T06:09:52.976Z,100.00
2023-03-06T06:12:20.558Z,100.00
2023-03-06T06:14:48.745Z,100.00
2023-03-06T06:17:16.685Z,100.00
2023-03-06T06:19:44.337Z,100.00
2023-03-06T06:22:12.340Z,100.00
2023-03-06T06:24:40.019Z,100.00
2023-03-06T06:27:07.971Z,100.00
2023-03-06T06:29:35.778Z,100.00
2023-03-06T06:32:03.348Z,100.00
2023-03-06T06:34:31.825Z,100.00
2023-03-06T06:36:59.446Z,100.00
2023-03-06T06:39:27.010Z,100.00
2023-03-06T06:42:14.530Z,100.00
2023-03-06T06:44:42.301Z,100.00
2023-03-06T06:47:22.263Z,100.00
2023-03-06T06:49:51.720Z,100.00
2023-03-06T06:52:19.470Z,100.00
2023-03-06T06:54:47.480Z,100.00
2023-03-06T06:57:15.459Z,100.00
2023-03-06T06:59:43.232Z,100.00
2023-03-06T07:02:12.949Z,100.00
2023-03-06T07:04:52.196Z,100.00
2023-03-06T07:07:28.585Z,100.00
2023-03-06T07:09:56.418Z,100.00
2023-03-06T07:12:24.161Z,100.00
2023-03-06T07:14:52.088Z,100.00
2023-03-06T07:17:19.786Z,100.00
2023-03-06T07:19:48.205Z,100.00
2023-03-06T07:22:16.187Z,100.00
2023-03-06T07:24:43.777Z,100.00
2023-03-06T07:27:11.263Z,100.00
2023-03-06T07:29:38.799Z,100.00
2023-03-06T07:32:06.623Z,100.00
2023-03-06T07:34:34.133Z,100.00
2023-03-06T07:37:01.695Z,100.00
2023-03-06T07:39:30.145Z,100.00
2023-03-06T07:41:58.640Z,100.00
2023-03-06T07:44:26.617Z,100.00
2023-03-06T07:46:54.170Z,100.00
2023-03-06T07:49:21.718Z,100.00
2023-03-06T07:51:49.284Z,100.00
2023-03-06T07:54:16.730Z,100.00
2023-03-06T07:56:44.188Z,100.00
2023-03-06T07:59:11.995Z,100.00
2023-03-06T08:01:40.281Z,100.00
2023-03-06T08:04:08.208Z,100.00
2023-03-06T08:06:36.314Z,100.00
2023-03-06T08:09:04.411Z,100.00
2023-03-06T08:11:33.311Z,100.00
2023-03-06T08:14:01.109Z,100.00
2023-03-06T08:16:30.966Z,100.00
2023-03-06T08:18:58.819Z,100.00
2023-03-06T08:21:28.085Z,100.00
2023-03-06T08:23:56.159Z,100.00
2023-03-06T08:26:26.582Z,100.00
2023-03-06T08:28:56.134Z,100.00
2023-03-06T08:31:31.660Z,100.00
2023-03-06T08:34:02.378Z,100.00
2023-03-06T08:36:30.321Z,100.00
2023-03-06T08:38:58.234Z,97.55
2023-03-06T08:41:26.341Z,96.85
2023-03-06T08:43:53.973Z,96.15
2023-03-06T08:46:23.521Z,94.49
2023-03-06T08:48:51.987Z,89.77
2023-03-06T08:51:20.468Z,88.09
2023-03-06T08:53:52.368Z,81.88
2023-03-06T08:56:19.866Z,82.63
2023-03-06T08:58:47.960Z,81.16
2023-03-06T09:01:24.281Z,86.71
2023-03-06T09:03:54.551Z,84.85
2023-03-06T09:06:23.231Z,78.88
2023-03-06T09:08:52.401Z,75.68
2023-03-06T09:11:22.329Z,74.65
2023-03-06T09:13:50.342Z,71.01
2023-03-06T09:16:18.227Z,69.96
2023-03-06T09:18:45.884Z,64.61
2023-03-06T09:21:13.425Z,63.46
2023-03-06T09:23:41.241Z,61.08
2023-03-06T09:26:08.958Z,61.91
2023-03-06T09:28:38.977Z,61.82
2023-03-06T09:31:11.058Z,64.30
2023-03-06T09:33:39.087Z,64.02
2023-03-06T09:36:08.412Z,66.23
2023-03-06T09:38:35.956Z,64.47
2023-03-06T09:41:33.114Z,66.93
2023-03-06T09:44:26.089Z,65.87
2023-03-06T09:47:03.697Z,64.49
2023-03-06T09:49:51.629Z,64.65
2023-03-06T09:52:54.409Z,64.28
2023-03-06T09:55:24.862Z,65.25
2023-03-06T09:58:20.485Z,65.88
2023-03-06T10:00:54.003Z,67.33
2023-03-06T10:03:47.017Z,70.11
2023-03-06T10:06:25.307Z,67.96
2023-03-06T10:09:00.639Z,67.07
2023-03-06T10:11:35.970Z,66.63
2023-03-06T10:14:12.282Z,64.84
2023-03-06T10:16:40.248Z,64.78
2023-03-06T10:19:15.604Z,63.17
2023-03-06T10:22:00.411Z,63.73
2023-03-06T10:24:34.044Z,64.24
2023-03-06T10:27:13.120Z,63.42
2023-03-06T10:30:00.127Z,62.40
2023-03-06T10:32:48.647Z,58.35
2023-03-06T10:35:22.896Z,58.66
2023-03-06T10:37:50.692Z,60.22
2023-03-06T10:40:22.744Z,59.22
2023-03-06T10:42:58.767Z,58.07
2023-03-06T10:45:51.471Z,58.42
2023-03-06T10:48:21.868Z,59.19
2023-03-06T10:50:50.220Z,58.99
2023-03-06T10:53:25.150Z,56.83
2023-03-06T10:55:59.855Z,58.79
2023-03-06T10:58:32.247Z,59.75
2023-03-06T11:01:07.119Z,60.93
2023-03-06T11:03:36.323Z,59.91
2023-03-06T11:06:12.884Z,60.41
2023-03-06T11:08:42.587Z,62.14
2023-03-06T11:11:22.409Z,63.35
2023-03-06T11:13:58.542Z,62.33
2023-03-06T11:16:30.939Z,60.68
2023-03-06T11:19:05.812Z,60.87
2023-03-06T11:21:35.368Z,60.71
2023-03-06T11:24:11.548Z,60.60
2023-03-06T11:26:45.237Z,59.47
2023-03-06T11:29:38.945Z,58.62
2023-03-06T11:32:15.028Z,60.12
2023-03-06T11:34:57.954Z,60.72
2023-03-06T11:37:30.889Z,60.21
2023-03-06T11:40:06.674Z,59.09
2023-03-06T11:42:45.547Z,57.92
2023-03-06T11:45:22.440Z,56.96
2023-03-06T11:48:22.253Z,55.36
2023-03-06T11:50:52.538Z,54.87
2023-03-06T11:53:20.887Z,52.67
2023-03-06T11:56:03.581Z,51.71
2023-03-06T11:58:49.812Z,51.67
2023-03-06T12:01:41.692Z,50.27
2023-03-06T12:04:34.219Z,50.40
2023-03-06T12:07:13.944Z,50.89
2023-03-06T12:09:46.882Z,52.29
2023-03-06T12:12:46.571Z,52.01
2023-03-06T12:15:23.431Z,52.80
2023-03-06T12:18:28.416Z,51.01
2023-03-06T12:21:26.558Z,49.29
2023-03-06T12:24:03.783Z,48.46
2023-03-06T12:26:47.646Z,48.60
2023-03-06T12:29:24.736Z,48.32
2023-03-06T12:32:01.721Z,47.96
2023-03-06T12:34:41.780Z,46.81
2023-03-06T12:37:12.016Z,47.93
2023-03-06T12:40:21.751Z,48.23
2023-03-06T12:43:19.729Z,48.75
2023-03-06T12:45:49.681Z,49.78
2023-03-06T12:48:22.303Z,48.62
2023-03-06T12:50:50.236Z,48.38
2023-03-06T12:53:27.770Z,48.54
2023-03-06T12:55:56.066Z,49.10
2023-03-06T12:58:29.932Z,48.83
2023-03-06T13:01:04.435Z,48.53
2023-03-06T13:03:50.863Z,49.09
2023-03-06T13:06:49.784Z,50.36
2023-03-06T13:09:55.214Z,50.15
2023-03-06T13:12:22.680Z,50.12
2023-03-06T13:14:54.972Z,49.89
2023-03-06T13:17:38.657Z,50.06
2023-03-06T13:20:15.551Z,49.06
2023-03-06T13:22:44.700Z,48.21
2023-03-06T13:25:18.422Z,49.25
2023-03-06T13:27:55.053Z,50.43
2023-03-06T13:30:28.418Z,51.34
2023-03-06T13:32:56.246Z,51.65
2023-03-06T13:35:29.898Z,51.71
2023-03-06T13:37:59.165Z,51.11
2023-03-06T13:40:27.992Z,50.07
2023-03-06T13:43:01.770Z,50.79
2023-03-06T13:45:39.007Z,51.65
2023-03-06T13:48:30.341Z,50.80
2023-03-06T13:50:55.519Z,50.99
2023-03-06T13:54:11.864Z,51.33
2023-03-06T13:57:01.026Z,53.10
2023-03-06T13:59:48.982Z,52.64
2023-03-06T14:02:29.207Z,53.31
2023-03-06T14:04:59.053Z,53.41
2023-03-06T14:07:43.330Z,53.09
2023-03-06T14:10:13.807Z,53.65
2023-03-06T14:12:51.628Z,55.02
2023-03-06T14:15:55.185Z,54.64
2023-03-06T14:18:23.985Z,54.71
2023-03-06T14:20:55.267Z,53.55
2023-03-06T14:23:24.627Z,53.10
2023-03-06T14:26:17.670Z,52.97
2023-03-06T14:28:58.494Z,52.83
2023-03-06T14:31:31.062Z,51.36
2023-03-06T14:34:05.031Z,52.62
2023-03-06T14:36:36.810Z,52.71
2023-03-06T14:39:12.024Z,53.08
2023-03-06T14:41:40.720Z,53.22
2023-03-06T14:44:17.752Z,53.15
2023-03-06T14:46:47.706Z,52.29
2023-03-06T14:49:16.837Z,51.50
2023-03-06T14:51:46.942Z,51.38
2023-03-06T14:54:32.810Z,51.76
2023-03-06T14:57:03.851Z,51.42
2023-03-06T14:59:37.419Z,51.21
2023-03-06T15:02:07.531Z,50.77
2023-03-06T15:04:40.775Z,51.26
2023-03-06T15:07:11.784Z,51.89
2023-03-06T15:09:45.102Z,51.24
2023-03-06T15:12:18.617Z,51.38
2023-03-06T15:15:10.254Z,51.24
2023-03-06T15:17:45.476Z,51.05
2023-03-06T15:20:41.290Z,51.19
2023-03-06T15:23:37.940Z,53.21
2023-03-06T15:26:34.183Z,55.29
2023-03-06T15:29:11.108Z,53.75
2023-03-06T15:31:40.703Z,53.89
2023-03-06T15:34:11.089Z,54.81
2023-03-06T15:36:48.931Z,55.38
2023-03-06T15:39:41.051Z,55.29
2023-03-06T15:42:20.769Z,57.44
2023-03-06T15:44:53.343Z,56.66
2023-03-06T15:47:22.346Z,58.03
2023-03-06T15:49:52.575Z,59.40
2023-03-06T15:52:21.935Z,59.58
2023-03-06T15:54:50.169Z,60.38
2023-03-06T15:57:35.888Z,61.81
2023-03-06T16:00:04.351Z,63.07
2023-03-06T16:02:39.094Z,64.97
2023-03-06T16:05:17.329Z,67.52
2023-03-06T16:07:45.295Z,68.24
2023-03-06T16:10:16.352Z,71.20
2023-03-06T16:12:47.558Z,74.57
2023-03-06T16:15:33.140Z,76.10
2023-03-06T16:18:00.879Z,78.51
2023-03-06T16:20:29.582Z,81.88
2023-03-06T16:22:57.688Z,83.31
2023-03-06T16:25:26.881Z,84.59
2023-03-06T16:27:59.786Z,84.42
2023-03-06T16:30:29.725Z,87.06
2023-03-06T16:32:58.049Z,90.89
2023-03-06T16:35:26.236Z,87.65
2023-03-06T16:37:56.072Z,88.96
2023-03-06T16:40:43.367Z,90.86
2023-03-06T16:43:11.107Z,90.75
2023-03-06T16:45:39.912Z,93.48
2023-03-06T16:48:10.863Z,93.28
2023-03-06T16:50:39.965Z,95.08
2023-03-06T16:53:07.899Z,96.74
2023-03-06T16:55:35.784Z,100.00
2023-03-06T16:58:03.760Z,100.00
2023-03-06T17:00:33.183Z,99.71
2023-03-06T17:03:02.039Z,97.34
2023-03-06T17:05:33.184Z,96.74
2023-03-06T17:08:01.359Z,96.96
2023-03-06T17:10:29.344Z,96.92
2023-03-06T17:12:57.441Z,95.47
2023-03-06T17:15:25.385Z,94.66
2023-03-06T17:17:53.366Z,95.46
2023-03-06T17:20:21.135Z,96.97
2023-03-06T17:22:48.783Z,99.14
2023-03-06T17:25:16.351Z,100.00
2023-03-06T17:27:43.960Z,100.00
2023-03-06T17:30:12.182Z,100.00
2023-03-06T17:32:42.755Z,100.00
2023-03-06T17:35:10.559Z,100.00
2023-03-06T17:37:38.333Z,100.00
2023-03-06T17:40:08.769Z,100.00
2023-03-06T17:42:36.585Z,100.00
2023-03-06T17:45:05.415Z,100.00
2023-03-06T17:47:33.196Z,100.00
2023-03-06T17:50:03.109Z,100.00
2023-03-06T17:52:30.965Z,100.00
2023-03-06T17:54:58.818Z,100.00
2023-03-06T17:57:26.792Z,100.00
2023-03-06T17:59:54.458Z,100.00
2023-03-06T18:02:22.137Z,100.00
2023-03-06T18:04:49.862Z,100.00
2023-03-06T18:07:17.477Z,100.00
2023-03-06T18:09:45.014Z,100.00
2023-03-06T18:12:12.672Z,100.00
2023-03-06T18:14:40.295Z,100.00
2023-03-06T18:17:08.194Z,100.00
2023-03-06T18:19:38.428Z,100.00
2023-03-06T18:22:06.027Z,100.00
2023-03-06T18:24:33.476Z,100.00
2023-03-06T18:27:00.928Z,100.00
2023-03-06T18:29:28.401Z,100.00
2023-03-06T18:31:56.816Z,100.00
2023-03-06T18:34:24.498Z,100.00
2023-03-06T18:36:52.798Z,100.00
2023-03-06T18:39:21.447Z,100.00
2023-03-06T18:41:49.130Z,100.00
2023-03-06T18:44:21.413Z,100.00
2023-03-06T18:46:49.043Z,100.00
2023-03-06T18:49:16.716Z,100.00
2023-03-06T18:51:44.395Z,100.00
2023-03-06T18:54:12.114Z,100.00
2023-03-06T18:56:43.970Z,100.00
2023-03-06T18:59:18.927Z,100.00
2023-03-06T19:01:47.314Z,100.00
2023-03-06T19:04:15.210Z,100.00
2023-03-06T19:06:42.869Z,100.00
2023-03-06T19:09:11.388Z,100.00
2023-03-06T19:11:38.967Z,100.00
2023-03-06T19:14:06.895Z,100.00
2023-03-06T19:16:35.108Z,100.00
2023-03-06T19:19:02.698Z,100.00
2023-03-06T19:21:31.994Z,100.00
2023-03-06T19:23:59.752Z,100.00
2023-03-06T19:26:28.076Z,100.00
2023-03-06T19:28:55.831Z,100.00
2023-03-06T19:31:25.998Z,100.00
2023-03-06T19:33:55.015Z,100.00
2023-03-06T19:36:26.810Z,100.00
2023-03-06T19:38:58.954Z,100.00
2023-03-06T19:41:27.907Z,100.00
2023-03-06T19:43:58.379Z,100.00
2023-03-06T19:46:26.810Z,100.00
2023-03-06T19:48:56.506Z,100.00
2023-03-06T19:51:25.029Z,100.00
2023-03-06T19:53:53.208Z,100.00
2023-03-06T19:56:23.580Z,100.00
2023-03-06T19:58:52.000Z,100.00
2023-03-06T20:01:26.360Z,100.00
2023-03-06T20:03:59.218Z,100.00
2023-03-06T20:06:29.751Z,100.00
2023-03-06T20:08:57.437Z,100.00
2023-03-06T20:11:27.201Z,100.00
2023-03-06T20:14:00.192Z,100.00
2023-03-06T20:16:32.190Z,100.00
2023-03-06T20:19:00.849Z,100.00
2023-03-06T20:21:30.218Z,100.00
2023-03-06T20:23:58.302Z,100.00
2023-03-06T20:26:28.279Z,100.00
2023-03-06T20:28:56.648Z,100.00
2023-03-06T20:31:26.216Z,100.00
2023-03-06T20:33:54.971Z,100.00
2023-03-06T20:36:28.772Z,100.00
2023-03-06T20:38:56.760Z,100.00
2023-03-06T20:41:26.546Z,100.00
2023-03-06T20:43:54.480Z,100.00
2023-03-06T20:46:23.436Z,100.00
2023-03-06T20:48:52.390Z,100.00
2023-03-06T20:51:25.869Z,100.00
2023-03-06T20:53:53.675Z,100.00
2023-03-06T20:56:24.606Z,100.00
2023-03-06T20:58:55.012Z,100.00
2023-03-06T21:01:27.469Z,100.00
2023-03-06T21:03:59.184Z,100.00
2023-03-06T21:06:28.474Z,100.00
2023-03-06T21:08:57.923Z,100.00
2023-03-06T21:11:26.222Z,100.00
2023-03-06T21:13:54.377Z,100.00
2023-03-06T21:16:24.641Z,100.00
2023-03-06T21:19:17.153Z,100.00
2023-03-06T21:21:44.590Z,100.00
2023-03-06T21:24:12.114Z,100.00
2023-03-06T21:26:39.603Z,100.00
2023-03-06T21:29:07.085Z,100.00
2023-03-06T21:31:34.667Z,100.00
2023-03-06T21:34:27.440Z,100.00
2023-03-06T21:37:12.673Z,100.00
2023-03-06T21:39:42.068Z,100.00
2023-03-06T21:42:09.697Z,100.00
2023-03-06T21:44:37.329Z,100.00
2023-03-06T21:47:05.504Z,100.00
2023-03-06T21:49:33.376Z,100.00
2023-03-06T21:52:00.887Z,100.00
2023-03-06T21:54:29.335Z,100.00
2023-03-06T21:56:57.626Z,100.00
2023-03-06T21:59:25.138Z,100.00
2023-03-06T22:01:52.644Z,100.00
2023-03-06T22:04:20.212Z,100.00
2023-03-06T22:06:47.652Z,100.00
2023-03-06T22:09:17.205Z,100.00
2023-03-06T22:11:44.754Z,100.00
2023-03-06T22:14:12.277Z,100.00
2023-03-06T22:16:39.772Z,100.00
2023-03-06T22:19:07.473Z,100.00
2023-03-06T22:21:34.953Z,100.00
2023-03-06T22:24:02.381Z,100.00
2023-03-06T22:26:30.353Z,100.00
2023-03-06T22:28:58.234Z,100.00
2023-03-06T22:31:30.189Z,100.00
2023-03-06T22:34:04.487Z,100.00
2023-03-06T22:36:38.344Z,100.00
2023-03-06T22:39:06.202Z,100.00
2023-03-06T22:41:34.040Z,100.00
2023-03-06T22:44:02.156Z,100.00
2023-03-06T22:46:30.441Z,100.00
2023-03-06T22:48:59.986Z,100.00
2023-03-06T22:51:29.443Z,100.00
2023-03-06T22:53:57.336Z,100.00
2023-03-06T22:56:25.448Z,100.00
2023-03-06T22:58:53.372Z,100.00
2023-03-06T23:01:29.365Z,100.00
2023-03-06T23:03:59.652Z,100.00
2023-03-06T23:06:35.705Z,100.00
2023-03-06T23:09:15.861Z,100.00
2023-03-06T23:12:01.701Z,100.00
2023-03-06T23:14:51.089Z,100.00
2023-03-06T23:17:37.407Z,100.00
2023-03-06T23:20:23.975Z,100.00
2023-03-06T23:23:10.939Z,100.00
2023-03-06T23:25:44.411Z,100.00
2023-03-06T23:28:12.311Z,100.00
2023-03-06T23:30:40.847Z,100.00
2023-03-06T23:33:08.900Z,100.00
2023-03-06T23:35:37.792Z,100.00
2023-03-06T23:38:05.592Z,100.00
2023-03-06T23:40:34.656Z,100.00
2023-03-06T23:43:02.951Z,100.00
2023-03-06T23:45:30.831Z,100.00
2023-03-06T23:47:58.930Z,100.00
2023-03-06T23:50:26.660Z,100.00
2023-03-06T23:52:55.090Z,100.00
2023-03-06T23:55:22.770Z,100.00
2023-03-06T23:57:50.428Z,100.00
